sensor_id;sensor_type;location;lat;lon;timestamp;P1;durP1;ratioP1;P2;durP2;ratioP2
33150;SDS011;19508;42.578;23.416;2022-09-09T00:00:12;16.83;;;8.50;;
33150;SDS011;19508;42.578;23.416;2022-09-09T00:02:39;16.02;;;7.90;;
33150;SDS011;19508;42.578;23.416;2022-09-09T00:08:18;10.70;;;7.28;;
33150;SDS011;19508;42.578;23.416;2022-09-09T00:10:54;8.90;;;5.45;;
33150;SDS011;19508;42.578;23.416;2022-09-09T00:21:36;14.55;;;7.47;;
33150;SDS011;19508;42.578;23.416;2022-09-09T00:26:54;20.50;;;8.07;;
33150;SDS011;19508;42.578;23.416;2022-09-09T00:32:11;16.35;;;7.75;;
33150;SDS011;19508;42.578;23.416;2022-09-09T00:35:10;13.10;;;6.97;;
33150;SDS011;19508;42.578;23.416;2022-09-09T00:37:40;11.88;;;8.02;;
33150;SDS011;19508;42.578;23.416;2022-09-09T00:40:17;15.13;;;7.00;;
33150;SDS011;19508;42.578;23.416;2022-09-09T00:43:08;9.48;;;7.45;;
33150;SDS011;19508;42.578;23.416;2022-09-09T00:48:57;10.73;;;7.65;;
33150;SDS011;19508;42.578;23.416;2022-09-09T00:51:44;13.18;;;7.53;;
33150;SDS011;19508;42.578;23.416;2022-09-09T00:54:25;10.65;;;7.93;;
33150;SDS011;19508;42.578;23.416;2022-09-09T00:57:29;19.75;;;8.43;;
33150;SDS011;19508;42.578;23.416;2022-09-09T01:05:21;19.63;;;8.48;;
33150;SDS011;19508;42.578;23.416;2022-09-09T01:08:00;15.65;;;8.73;;
33150;SDS011;19508;42.578;23.416;2022-09-09T01:13:26;18.67;;;9.10;;
33150;SDS011;19508;42.578;23.416;2022-09-09T01:16:00;18.08;;;8.95;;
33150;SDS011;19508;42.578;23.416;2022-09-09T01:18:39;14.02;;;8.95;;
33150;SDS011;19508;42.578;23.416;2022-09-09T01:24:13;11.23;;;8.48;;
33150;SDS011;19508;42.578;23.416;2022-09-09T01:26:47;11.10;;;8.45;;
33150;SDS011;19508;42.578;23.416;2022-09-09T01:29:17;16.48;;;8.52;;
33150;SDS011;19508;42.578;23.416;2022-09-09T01:31:54;15.32;;;9.05;;
33150;SDS011;19508;42.578;23.416;2022-09-09T01:34:22;17.85;;;9.40;;
33150;SDS011;19508;42.578;23.416;2022-09-09T01:37:06;10.90;;;7.97;;
33150;SDS011;19508;42.578;23.416;2022-09-09T01:39:34;17.42;;;9.35;;
33150;SDS011;19508;42.578;23.416;2022-09-09T01:42:01;11.38;;;8.40;;
33150;SDS011;19508;42.578;23.416;2022-09-09T01:44:28;16.08;;;9.23;;
33150;SDS011;19508;42.578;23.416;2022-09-09T01:46:55;14.75;;;8.77;;
33150;SDS011;19508;42.578;23.416;2022-09-09T01:49:21;13.73;;;9.02;;
33150;SDS011;19508;42.578;23.416;2022-09-09T01:51:48;14.48;;;8.45;;
33150;SDS011;19508;42.578;23.416;2022-09-09T01:54:17;11.63;;;8.48;;
33150;SDS011;19508;42.578;23.416;2022-09-09T01:59:33;18.88;;;8.23;;
33150;SDS011;19508;42.578;23.416;2022-09-09T02:02:26;14.63;;;9.18;;
33150;SDS011;19508;42.578;23.416;2022-09-09T02:05:09;15.98;;;8.70;;
33150;SDS011;19508;42.578;23.416;2022-09-09T02:07:47;13.73;;;8.77;;
33150;SDS011;19508;42.578;23.416;2022-09-09T02:10:20;19.33;;;9.45;;
33150;SDS011;19508;42.578;23.416;2022-09-09T02:12:54;16.80;;;8.60;;
33150;SDS011;19508;42.578;23.416;2022-09-09T02:15:28;22.38;;;8.88;;
33150;SDS011;19508;42.578;23.416;2022-09-09T02:18:00;16.00;;;8.68;;
33150;SDS011;19508;42.578;23.416;2022-09-09T02:20:31;14.13;;;9.18;;
33150;SDS011;19508;42.578;23.416;2022-09-09T02:22:58;12.80;;;8.65;;
33150;SDS011;19508;42.578;23.416;2022-09-09T02:25:24;14.95;;;9.23;;
33150;SDS011;19508;42.578;23.416;2022-09-09T02:27:52;14.75;;;9.23;;
33150;SDS011;19508;42.578;23.416;2022-09-09T02:30:18;12.63;;;8.30;;
33150;SDS011;19508;42.578;23.416;2022-09-09T02:32:45;12.93;;;9.23;;
33150;SDS011;19508;42.578;23.416;2022-09-09T02:35:15;12.95;;;8.60;;
33150;SDS011;19508;42.578;23.416;2022-09-09T02:37:45;10.47;;;7.80;;
33150;SDS011;19508;42.578;23.416;2022-09-09T02:40:15;12.68;;;8.27;;
33150;SDS011;19508;42.578;23.416;2022-09-09T02:42:41;13.98;;;8.02;;
33150;SDS011;19508;42.578;23.416;2022-09-09T02:45:09;14.68;;;8.13;;
33150;SDS011;19508;42.578;23.416;2022-09-09T02:50:32;12.93;;;8.25;;
33150;SDS011;19508;42.578;23.416;2022-09-09T02:55:55;10.45;;;7.72;;
33150;SDS011;19508;42.578;23.416;2022-09-09T02:58:25;13.40;;;8.27;;
33150;SDS011;19508;42.578;23.416;2022-09-09T03:00:51;10.77;;;8.38;;
33150;SDS011;19508;42.578;23.416;2022-09-09T03:03:18;17.52;;;8.30;;
33150;SDS011;19508;42.578;23.416;2022-09-09T03:05:44;9.88;;;7.30;;
33150;SDS011;19508;42.578;23.416;2022-09-09T03:08:10;12.07;;;8.30;;
33150;SDS011;19508;42.578;23.416;2022-09-09T03:10:38;15.02;;;7.78;;
33150;SDS011;19508;42.578;23.416;2022-09-09T03:13:03;13.98;;;8.13;;
33150;SDS011;19508;42.578;23.416;2022-09-09T03:15:30;18.80;;;8.32;;
33150;SDS011;19508;42.578;23.416;2022-09-09T03:17:57;13.00;;;7.60;;
33150;SDS011;19508;42.578;23.416;2022-09-09T03:20:23;11.77;;;8.05;;
33150;SDS011;19508;42.578;23.416;2022-09-09T03:22:50;13.85;;;8.02;;
33150;SDS011;19508;42.578;23.416;2022-09-09T03:25:17;12.32;;;8.80;;
33150;SDS011;19508;42.578;23.416;2022-09-09T03:27:43;15.15;;;7.95;;
33150;SDS011;19508;42.578;23.416;2022-09-09T03:30:08;18.70;;;7.88;;
33150;SDS011;19508;42.578;23.416;2022-09-09T03:32:34;13.73;;;8.15;;
33150;SDS011;19508;42.578;23.416;2022-09-09T03:34:59;13.02;;;7.70;;
33150;SDS011;19508;42.578;23.416;2022-09-09T03:37:25;21.10;;;7.78;;
33150;SDS011;19508;42.578;23.416;2022-09-09T03:39:50;15.32;;;7.82;;
33150;SDS011;19508;42.578;23.416;2022-09-09T03:42:16;11.20;;;7.65;;
33150;SDS011;19508;42.578;23.416;2022-09-09T03:44:45;11.55;;;7.63;;
33150;SDS011;19508;42.578;23.416;2022-09-09T03:47:19;13.80;;;8.20;;
33150;SDS011;19508;42.578;23.416;2022-09-09T03:49:47;11.40;;;8.13;;
33150;SDS011;19508;42.578;23.416;2022-09-09T03:52:13;11.60;;;8.00;;
33150;SDS011;19508;42.578;23.416;2022-09-09T03:54:39;14.27;;;8.23;;
33150;SDS011;19508;42.578;23.416;2022-09-09T03:57:04;14.77;;;8.90;;
33150;SDS011;19508;42.578;23.416;2022-09-09T03:59:30;10.23;;;8.13;;
33150;SDS011;19508;42.578;23.416;2022-09-09T04:01:55;21.20;;;9.15;;
33150;SDS011;19508;42.578;23.416;2022-09-09T04:04:22;15.63;;;8.32;;
33150;SDS011;19508;42.578;23.416;2022-09-09T04:06:47;12.48;;;8.48;;
33150;SDS011;19508;42.578;23.416;2022-09-09T04:09:13;11.68;;;8.23;;
33150;SDS011;19508;42.578;23.416;2022-09-09T04:11:40;14.70;;;8.75;;
33150;SDS011;19508;42.578;23.416;2022-09-09T04:14:06;14.60;;;8.13;;
33150;SDS011;19508;42.578;23.416;2022-09-09T04:16:32;13.43;;;7.60;;
33150;SDS011;19508;42.578;23.416;2022-09-09T04:18:58;11.32;;;7.50;;
33150;SDS011;19508;42.578;23.416;2022-09-09T04:21:25;14.27;;;7.55;;
33150;SDS011;19508;42.578;23.416;2022-09-09T04:23:50;14.45;;;8.32;;
33150;SDS011;19508;42.578;23.416;2022-09-09T04:26:16;24.67;;;8.73;;
33150;SDS011;19508;42.578;23.416;2022-09-09T04:28:42;13.10;;;7.68;;
33150;SDS011;19508;42.578;23.416;2022-09-09T04:31:14;16.00;;;7.93;;
33150;SDS011;19508;42.578;23.416;2022-09-09T04:33:43;17.20;;;8.23;;
33150;SDS011;19508;42.578;23.416;2022-09-09T04:36:09;19.30;;;9.13;;
33150;SDS011;19508;42.578;23.416;2022-09-09T04:38:34;10.15;;;7.72;;
33150;SDS011;19508;42.578;23.416;2022-09-09T04:41:00;26.92;;;8.27;;
33150;SDS011;19508;42.578;23.416;2022-09-09T04:43:26;14.90;;;7.90;;
33150;SDS011;19508;42.578;23.416;2022-09-09T04:45:52;11.23;;;7.50;;
33150;SDS011;19508;42.578;23.416;2022-09-09T04:48:17;15.00;;;7.72;;
33150;SDS011;19508;42.578;23.416;2022-09-09T04:50:44;13.63;;;7.60;;
33150;SDS011;19508;42.578;23.416;2022-09-09T04:53:18;23.02;;;8.05;;
33150;SDS011;19508;42.578;23.416;2022-09-09T04:55:43;11.77;;;7.30;;
33150;SDS011;19508;42.578;23.416;2022-09-09T04:58:08;13.70;;;7.53;;
33150;SDS011;19508;42.578;23.416;2022-09-09T05:00:34;12.25;;;8.38;;
33150;SDS011;19508;42.578;23.416;2022-09-09T05:03:06;13.00;;;7.03;;
33150;SDS011;19508;42.578;23.416;2022-09-09T05:05:34;12.57;;;7.50;;
33150;SDS011;19508;42.578;23.416;2022-09-09T05:08:06;16.88;;;7.40;;
33150;SDS011;19508;42.578;23.416;2022-09-09T05:10:35;10.68;;;6.82;;
33150;SDS011;19508;42.578;23.416;2022-09-09T05:13:02;12.52;;;7.15;;
33150;SDS011;19508;42.578;23.416;2022-09-09T05:15:29;19.75;;;6.70;;
33150;SDS011;19508;42.578;23.416;2022-09-09T05:17:59;16.65;;;7.40;;
33150;SDS011;19508;42.578;23.416;2022-09-09T05:20:25;11.82;;;6.80;;
33150;SDS011;19508;42.578;23.416;2022-09-09T05:22:55;11.10;;;6.50;;
33150;SDS011;19508;42.578;23.416;2022-09-09T05:25:21;11.80;;;7.18;;
33150;SDS011;19508;42.578;23.416;2022-09-09T05:27:47;7.18;;;5.45;;
33150;SDS011;19508;42.578;23.416;2022-09-09T05:30:12;8.65;;;6.25;;
33150;SDS011;19508;42.578;23.416;2022-09-09T05:32:38;15.73;;;6.35;;
33150;SDS011;19508;42.578;23.416;2022-09-09T05:35:03;10.10;;;6.05;;
33150;SDS011;19508;42.578;23.416;2022-09-09T05:37:30;14.10;;;7.13;;
33150;SDS011;19508;42.578;23.416;2022-09-09T05:39:56;14.00;;;6.38;;
33150;SDS011;19508;42.578;23.416;2022-09-09T05:42:21;13.50;;;5.85;;
33150;SDS011;19508;42.578;23.416;2022-09-09T05:44:46;11.65;;;6.05;;
33150;SDS011;19508;42.578;23.416;2022-09-09T05:47:13;9.25;;;5.95;;
33150;SDS011;19508;42.578;23.416;2022-09-09T05:49:39;11.57;;;5.70;;
33150;SDS011;19508;42.578;23.416;2022-09-09T05:52:05;12.18;;;5.47;;
33150;SDS011;19508;42.578;23.416;2022-09-09T05:54:31;13.02;;;5.70;;
33150;SDS011;19508;42.578;23.416;2022-09-09T05:56:58;12.90;;;5.30;;
33150;SDS011;19508;42.578;23.416;2022-09-09T05:59:24;12.30;;;5.68;;
33150;SDS011;19508;42.578;23.416;2022-09-09T06:01:49;7.50;;;5.50;;
33150;SDS011;19508;42.578;23.416;2022-09-09T06:04:15;16.13;;;6.55;;
33150;SDS011;19508;42.578;23.416;2022-09-09T06:06:41;13.73;;;6.38;;
33150;SDS011;19508;42.578;23.416;2022-09-09T06:09:07;47.63;;;11.45;;
33150;SDS011;19508;42.578;23.416;2022-09-09T06:11:38;22.40;;;7.18;;
33150;SDS011;19508;42.578;23.416;2022-09-09T06:14:04;14.10;;;5.45;;
33150;SDS011;19508;42.578;23.416;2022-09-09T06:16:31;87.00;;;19.80;;
33150;SDS011;19508;42.578;23.416;2022-09-09T06:19:00;13.48;;;4.95;;
33150;SDS011;19508;42.578;23.416;2022-09-09T06:21:31;11.50;;;5.80;;
33150;SDS011;19508;42.578;23.416;2022-09-09T06:23:59;19.23;;;5.73;;
33150;SDS011;19508;42.578;23.416;2022-09-09T06:26:32;8.60;;;5.45;;
33150;SDS011;19508;42.578;23.416;2022-09-09T06:28:59;14.98;;;5.28;;
33150;SDS011;19508;42.578;23.416;2022-09-09T06:31:26;10.13;;;4.93;;
33150;SDS011;19508;42.578;23.416;2022-09-09T06:33:55;8.43;;;5.10;;
33150;SDS011;19508;42.578;23.416;2022-09-09T06:36:24;12.13;;;6.15;;
33150;SDS011;19508;42.578;23.416;2022-09-09T06:38:51;8.20;;;4.90;;
33150;SDS011;19508;42.578;23.416;2022-09-09T06:41:18;6.57;;;4.60;;
33150;SDS011;19508;42.578;23.416;2022-09-09T06:43:44;11.05;;;4.78;;
33150;SDS011;19508;42.578;23.416;2022-09-09T06:46:14;17.63;;;5.10;;
33150;SDS011;19508;42.578;23.416;2022-09-09T06:48:41;18.52;;;5.80;;
33150;SDS011;19508;42.578;23.416;2022-09-09T06:51:08;29.27;;;6.72;;
33150;SDS011;19508;42.578;23.416;2022-09-09T06:53:36;52.00;;;6.93;;
33150;SDS011;19508;42.578;23.416;2022-09-09T06:58:48;9.50;;;4.65;;
33150;SDS011;19508;42.578;23.416;2022-09-09T07:01:15;10.70;;;4.75;;
33150;SDS011;19508;42.578;23.416;2022-09-09T07:03:45;9.18;;;4.93;;
33150;SDS011;19508;42.578;23.416;2022-09-09T07:06:20;13.67;;;5.13;;
33150;SDS011;19508;42.578;23.416;2022-09-09T07:08:54;8.68;;;4.63;;
33150;SDS011;19508;42.578;23.416;2022-09-09T07:11:25;15.63;;;5.27;;
33150;SDS011;19508;42.578;23.416;2022-09-09T07:13:52;10.98;;;4.90;;
33150;SDS011;19508;42.578;23.416;2022-09-09T07:16:19;9.98;;;4.97;;
33150;SDS011;19508;42.578;23.416;2022-09-09T07:18:45;8.00;;;4.72;;
33150;SDS011;19508;42.578;23.416;2022-09-09T07:21:12;14.18;;;5.43;;
33150;SDS011;19508;42.578;23.416;2022-09-09T07:23:39;11.45;;;4.70;;
33150;SDS011;19508;42.578;23.416;2022-09-09T07:26:12;8.35;;;4.43;;
33150;SDS011;19508;42.578;23.416;2022-09-09T07:28:42;7.38;;;4.55;;
33150;SDS011;19508;42.578;23.416;2022-09-09T07:31:12;18.23;;;4.35;;
33150;SDS011;19508;42.578;23.416;2022-09-09T07:33:41;12.25;;;4.30;;
33150;SDS011;19508;42.578;23.416;2022-09-09T07:36:14;8.98;;;4.82;;
33150;SDS011;19508;42.578;23.416;2022-09-09T07:38:55;22.37;;;4.80;;
33150;SDS011;19508;42.578;23.416;2022-09-09T07:43:48;9.55;;;4.07;;
33150;SDS011;19508;42.578;23.416;2022-09-09T07:46:15;12.07;;;4.30;;
33150;SDS011;19508;42.578;23.416;2022-09-09T07:48:46;12.82;;;4.28;;
33150;SDS011;19508;42.578;23.416;2022-09-09T07:51:16;10.45;;;4.30;;
33150;SDS011;19508;42.578;23.416;2022-09-09T07:53:44;7.82;;;3.95;;
33150;SDS011;19508;42.578;23.416;2022-09-09T07:56:12;7.85;;;4.90;;
33150;SDS011;19508;42.578;23.416;2022-09-09T07:58:39;11.43;;;5.13;;
33150;SDS011;19508;42.578;23.416;2022-09-09T08:01:06;12.35;;;4.22;;
33150;SDS011;19508;42.578;23.416;2022-09-09T08:03:34;8.35;;;3.95;;
33150;SDS011;19508;42.578;23.416;2022-09-09T08:06:00;6.68;;;3.90;;
33150;SDS011;19508;42.578;23.416;2022-09-09T08:08:27;13.18;;;3.88;;
33150;SDS011;19508;42.578;23.416;2022-09-09T08:10:53;8.98;;;4.00;;
33150;SDS011;19508;42.578;23.416;2022-09-09T08:13:18;8.05;;;3.75;;
33150;SDS011;19508;42.578;23.416;2022-09-09T08:15:44;7.53;;;4.05;;
33150;SDS011;19508;42.578;23.416;2022-09-09T08:18:09;9.80;;;4.18;;
33150;SDS011;19508;42.578;23.416;2022-09-09T08:20:35;8.55;;;3.63;;
33150;SDS011;19508;42.578;23.416;2022-09-09T08:23:01;13.27;;;3.95;;
33150;SDS011;19508;42.578;23.416;2022-09-09T08:25:27;6.50;;;3.33;;
33150;SDS011;19508;42.578;23.416;2022-09-09T08:27:53;4.50;;;3.42;;
33150;SDS011;19508;42.578;23.416;2022-09-09T08:30:19;13.88;;;3.63;;
33150;SDS011;19508;42.578;23.416;2022-09-09T08:32:44;8.10;;;3.90;;
33150;SDS011;19508;42.578;23.416;2022-09-09T08:35:10;6.78;;;4.10;;
33150;SDS011;19508;42.578;23.416;2022-09-09T08:37:36;6.10;;;3.50;;
33150;SDS011;19508;42.578;23.416;2022-09-09T08:40:01;9.38;;;3.85;;
33150;SDS011;19508;42.578;23.416;2022-09-09T08:42:29;6.32;;;3.92;;
33150;SDS011;19508;42.578;23.416;2022-09-09T08:45:03;10.60;;;3.90;;
33150;SDS011;19508;42.578;23.416;2022-09-09T08:55:56;12.30;;;4.53;;
33150;SDS011;19508;42.578;23.416;2022-09-09T08:58:31;10.85;;;4.47;;
33150;SDS011;19508;42.578;23.416;2022-09-09T09:11:58;11.45;;;4.25;;
33150;SDS011;19508;42.578;23.416;2022-09-09T09:14:25;11.63;;;4.57;;
33150;SDS011;19508;42.578;23.416;2022-09-09T09:19:28;18.63;;;4.88;;
33150;SDS011;19508;42.578;23.416;2022-09-09T09:27:18;11.85;;;5.30;;
33150;SDS011;19508;42.578;23.416;2022-09-09T09:29:56;10.73;;;4.82;;
33150;SDS011;19508;42.578;23.416;2022-09-09T09:32:23;14.60;;;5.20;;
33150;SDS011;19508;42.578;23.416;2022-09-09T09:34:51;17.63;;;5.97;;
33150;SDS011;19508;42.578;23.416;2022-09-09T09:37:31;13.18;;;4.57;;
33150;SDS011;19508;42.578;23.416;2022-09-09T09:40:14;14.40;;;5.00;;
33150;SDS011;19508;42.578;23.416;2022-09-09T09:42:52;13.60;;;4.38;;
33150;SDS011;19508;42.578;23.416;2022-09-09T09:47:46;7.60;;;4.78;;
33150;SDS011;19508;42.578;23.416;2022-09-09T09:50:22;7.72;;;4.80;;
33150;SDS011;19508;42.578;23.416;2022-09-09T09:52:57;13.38;;;5.20;;
33150;SDS011;19508;42.578;23.416;2022-09-09T09:55:25;14.40;;;5.15;;
33150;SDS011;19508;42.578;23.416;2022-09-09T09:57:59;11.50;;;4.90;;
33150;SDS011;19508;42.578;23.416;2022-09-09T10:00:32;8.10;;;4.30;;
33150;SDS011;19508;42.578;23.416;2022-09-09T10:03:00;11.30;;;4.65;;
33150;SDS011;19508;42.578;23.416;2022-09-09T10:05:27;9.77;;;5.00;;
33150;SDS011;19508;42.578;23.416;2022-09-09T10:08:11;10.88;;;4.60;;
33150;SDS011;19508;42.578;23.416;2022-09-09T10:13:27;16.27;;;4.60;;
33150;SDS011;19508;42.578;23.416;2022-09-09T10:27:33;9.75;;;4.53;;
33150;SDS011;19508;42.578;23.416;2022-09-09T10:30:17;10.50;;;4.35;;
33150;SDS011;19508;42.578;23.416;2022-09-09T10:35:22;10.65;;;4.00;;
33150;SDS011;19508;42.578;23.416;2022-09-09T10:49:03;15.98;;;4.40;;
33150;SDS011;19508;42.578;23.416;2022-09-09T10:52:21;17.30;;;4.45;;
33150;SDS011;19508;42.578;23.416;2022-09-09T10:57:36;18.20;;;4.78;;
33150;SDS011;19508;42.578;23.416;2022-09-09T11:02:57;18.35;;;5.15;;
33150;SDS011;19508;42.578;23.416;2022-09-09T11:05:31;11.40;;;5.47;;
33150;SDS011;19508;42.578;23.416;2022-09-09T11:08:01;15.52;;;5.43;;
33150;SDS011;19508;42.578;23.416;2022-09-09T11:10:40;18.02;;;8.85;;
33150;SDS011;19508;42.578;23.416;2022-09-09T11:16:01;19.05;;;5.60;;
33150;SDS011;19508;42.578;23.416;2022-09-09T11:18:48;13.43;;;4.63;;
33150;SDS011;19508;42.578;23.416;2022-09-09T11:24:13;15.93;;;5.65;;
33150;SDS011;19508;42.578;23.416;2022-09-09T11:26:50;18.48;;;5.63;;
33150;SDS011;19508;42.578;23.416;2022-09-09T11:29:35;16.33;;;5.85;;
33150;SDS011;19508;42.578;23.416;2022-09-09T11:40:43;14.98;;;5.20;;
33150;SDS011;19508;42.578;23.416;2022-09-09T11:43:21;29.88;;;5.57;;
33150;SDS011;19508;42.578;23.416;2022-09-09T11:45:51;15.98;;;5.43;;
33150;SDS011;19508;42.578;23.416;2022-09-09T11:48:26;16.73;;;5.50;;
33150;SDS011;19508;42.578;23.416;2022-09-09T11:53:28;22.73;;;6.03;;
33150;SDS011;19508;42.578;23.416;2022-09-09T11:56:01;16.17;;;5.70;;
33150;SDS011;19508;42.578;23.416;2022-09-09T11:58:40;25.38;;;6.07;;
33150;SDS011;19508;42.578;23.416;2022-09-09T12:01:34;12.50;;;5.57;;
33150;SDS011;19508;42.578;23.416;2022-09-09T12:04:05;26.55;;;6.07;;
33150;SDS011;19508;42.578;23.416;2022-09-09T12:07:00;19.17;;;5.57;;
33150;SDS011;19508;42.578;23.416;2022-09-09T12:19:47;17.17;;;5.70;;
33150;SDS011;19508;42.578;23.416;2022-09-09T12:25:05;17.35;;;5.45;;
33150;SDS011;19508;42.578;23.416;2022-09-09T12:27:34;17.67;;;5.70;;
33150;SDS011;19508;42.578;23.416;2022-09-09T12:30:10;17.90;;;5.35;;
33150;SDS011;19508;42.578;23.416;2022-09-09T12:32:39;10.52;;;5.10;;
33150;SDS011;19508;42.578;23.416;2022-09-09T12:35:23;28.67;;;5.97;;
33150;SDS011;19508;42.578;23.416;2022-09-09T12:37:53;18.10;;;5.60;;
33150;SDS011;19508;42.578;23.416;2022-09-09T12:40:24;27.70;;;5.77;;
33150;SDS011;19508;42.578;23.416;2022-09-09T12:42:51;22.33;;;5.63;;
33150;SDS011;19508;42.578;23.416;2022-09-09T12:45:22;17.58;;;5.47;;
33150;SDS011;19508;42.578;23.416;2022-09-09T12:47:54;15.45;;;5.25;;
33150;SDS011;19508;42.578;23.416;2022-09-09T12:50:33;14.20;;;5.35;;
33150;SDS011;19508;42.578;23.416;2022-09-09T12:53:24;22.85;;;6.25;;
33150;SDS011;19508;42.578;23.416;2022-09-09T12:58:28;19.05;;;6.00;;
33150;SDS011;19508;42.578;23.416;2022-09-09T13:00:58;15.57;;;6.28;;
33150;SDS011;19508;42.578;23.416;2022-09-09T13:03:25;24.90;;;6.70;;
33150;SDS011;19508;42.578;23.416;2022-09-09T13:05:51;22.13;;;6.20;;
33150;SDS011;19508;42.578;23.416;2022-09-09T13:08:18;26.08;;;6.10;;
33150;SDS011;19508;42.578;23.416;2022-09-09T13:13:25;16.80;;;5.40;;
33150;SDS011;19508;42.578;23.416;2022-09-09T13:15:58;11.35;;;6.13;;
33150;SDS011;19508;42.578;23.416;2022-09-09T13:18:31;14.43;;;5.47;;
33150;SDS011;19508;42.578;23.416;2022-09-09T13:21:00;22.17;;;7.03;;
33150;SDS011;19508;42.578;23.416;2022-09-09T13:23:29;22.35;;;7.57;;
33150;SDS011;19508;42.578;23.416;2022-09-09T13:26:01;27.20;;;10.90;;
33150;SDS011;19508;42.578;23.416;2022-09-09T13:28:47;19.55;;;7.38;;
33150;SDS011;19508;42.578;23.416;2022-09-09T13:31:29;20.15;;;6.68;;
33150;SDS011;19508;42.578;23.416;2022-09-09T13:33:57;22.30;;;7.28;;
33150;SDS011;19508;42.578;23.416;2022-09-09T13:36:29;18.80;;;6.50;;
33150;SDS011;19508;42.578;23.416;2022-09-09T13:38:58;27.05;;;6.60;;
33150;SDS011;19508;42.578;23.416;2022-09-09T13:41:35;19.65;;;4.90;;
33150;SDS011;19508;42.578;23.416;2022-09-09T13:44:02;19.85;;;5.13;;
33150;SDS011;19508;42.578;23.416;2022-09-09T13:46:38;36.25;;;5.18;;
33150;SDS011;19508;42.578;23.416;2022-09-09T13:51:41;13.77;;;4.93;;
33150;SDS011;19508;42.578;23.416;2022-09-09T13:54:09;13.95;;;5.40;;
33150;SDS011;19508;42.578;23.416;2022-09-09T13:56:36;9.27;;;5.07;;
33150;SDS011;19508;42.578;23.416;2022-09-09T13:59:04;9.48;;;4.72;;
33150;SDS011;19508;42.578;23.416;2022-09-09T14:01:31;10.77;;;5.78;;
33150;SDS011;19508;42.578;23.416;2022-09-09T14:03:58;16.60;;;5.15;;
33150;SDS011;19508;42.578;23.416;2022-09-09T14:06:23;13.50;;;5.13;;
33150;SDS011;19508;42.578;23.416;2022-09-09T14:08:50;13.05;;;5.30;;
33150;SDS011;19508;42.578;23.416;2022-09-09T14:11:16;17.00;;;5.38;;
33150;SDS011;19508;42.578;23.416;2022-09-09T14:13:42;19.35;;;5.00;;
33150;SDS011;19508;42.578;23.416;2022-09-09T14:16:09;19.33;;;4.80;;
33150;SDS011;19508;42.578;23.416;2022-09-09T14:18:34;39.13;;;4.35;;
33150;SDS011;19508;42.578;23.416;2022-09-09T14:21:00;13.98;;;4.88;;
33150;SDS011;19508;42.578;23.416;2022-09-09T14:23:27;21.88;;;4.97;;
33150;SDS011;19508;42.578;23.416;2022-09-09T14:25:52;13.88;;;5.65;;
33150;SDS011;19508;42.578;23.416;2022-09-09T14:28:18;23.95;;;4.80;;
33150;SDS011;19508;42.578;23.416;2022-09-09T14:30:43;12.05;;;4.25;;
33150;SDS011;19508;42.578;23.416;2022-09-09T14:33:10;13.90;;;4.93;;
33150;SDS011;19508;42.578;23.416;2022-09-09T14:35:37;16.17;;;4.00;;
33150;SDS011;19508;42.578;23.416;2022-09-09T14:38:03;15.70;;;4.53;;
33150;SDS011;19508;42.578;23.416;2022-09-09T14:40:30;14.52;;;5.35;;
33150;SDS011;19508;42.578;23.416;2022-09-09T14:42:55;12.65;;;5.00;;
33150;SDS011;19508;42.578;23.416;2022-09-09T14:45:21;23.80;;;4.80;;
33150;SDS011;19508;42.578;23.416;2022-09-09T14:47:50;15.85;;;4.68;;
33150;SDS011;19508;42.578;23.416;2022-09-09T14:50:16;16.33;;;4.38;;
33150;SDS011;19508;42.578;23.416;2022-09-09T14:52:42;12.65;;;4.18;;
33150;SDS011;19508;42.578;23.416;2022-09-09T14:55:07;18.30;;;4.93;;
33150;SDS011;19508;42.578;23.416;2022-09-09T14:57:33;17.98;;;4.45;;
33150;SDS011;19508;42.578;23.416;2022-09-09T15:00:00;13.48;;;4.22;;
33150;SDS011;19508;42.578;23.416;2022-09-09T15:02:26;16.60;;;4.93;;
33150;SDS011;19508;42.578;23.416;2022-09-09T15:04:52;10.93;;;4.32;;
33150;SDS011;19508;42.578;23.416;2022-09-09T15:07:18;12.07;;;4.47;;
33150;SDS011;19508;42.578;23.416;2022-09-09T15:09:44;17.15;;;4.60;;
33150;SDS011;19508;42.578;23.416;2022-09-09T15:12:10;18.42;;;4.47;;
33150;SDS011;19508;42.578;23.416;2022-09-09T15:14:35;17.77;;;4.75;;
33150;SDS011;19508;42.578;23.416;2022-09-09T15:17:01;10.73;;;4.55;;
33150;SDS011;19508;42.578;23.416;2022-09-09T15:19:26;16.40;;;5.25;;
33150;SDS011;19508;42.578;23.416;2022-09-09T15:21:51;12.07;;;4.68;;
33150;SDS011;19508;42.578;23.416;2022-09-09T15:24:17;18.85;;;5.30;;
33150;SDS011;19508;42.578;23.416;2022-09-09T15:26:42;15.05;;;5.47;;
33150;SDS011;19508;42.578;23.416;2022-09-09T15:29:08;24.17;;;5.93;;
33150;SDS011;19508;42.578;23.416;2022-09-09T15:31:34;16.95;;;5.32;;
33150;SDS011;19508;42.578;23.416;2022-09-09T15:34:00;19.15;;;5.20;;
33150;SDS011;19508;42.578;23.416;2022-09-09T15:36:28;12.43;;;5.82;;
33150;SDS011;19508;42.578;23.416;2022-09-09T15:38:57;9.98;;;4.93;;
33150;SDS011;19508;42.578;23.416;2022-09-09T15:41:23;21.38;;;6.07;;
33150;SDS011;19508;42.578;23.416;2022-09-09T15:43:54;14.80;;;4.82;;
33150;SDS011;19508;42.578;23.416;2022-09-09T15:46:38;13.75;;;5.85;;
33150;SDS011;19508;42.578;23.416;2022-09-09T15:49:15;26.40;;;5.57;;
33150;SDS011;19508;42.578;23.416;2022-09-09T15:51:44;16.13;;;5.82;;
33150;SDS011;19508;42.578;23.416;2022-09-09T15:54:15;20.10;;;6.75;;
33150;SDS011;19508;42.578;23.416;2022-09-09T15:56:45;20.88;;;7.55;;
33150;SDS011;19508;42.578;23.416;2022-09-09T15:59:13;15.77;;;6.53;;
33150;SDS011;19508;42.578;23.416;2022-09-09T16:01:39;23.13;;;7.13;;
33150;SDS011;19508;42.578;23.416;2022-09-09T16:04:07;19.48;;;6.97;;
33150;SDS011;19508;42.578;23.416;2022-09-09T16:06:33;27.02;;;6.93;;
33150;SDS011;19508;42.578;23.416;2022-09-09T16:08:58;27.70;;;7.60;;
33150;SDS011;19508;42.578;23.416;2022-09-09T16:11:29;20.23;;;6.60;;
33150;SDS011;19508;42.578;23.416;2022-09-09T16:13:58;25.92;;;7.32;;
33150;SDS011;19508;42.578;23.416;2022-09-09T16:16:25;23.45;;;7.97;;
33150;SDS011;19508;42.578;23.416;2022-09-09T16:18:53;21.73;;;6.55;;
33150;SDS011;19508;42.578;23.416;2022-09-09T16:21:22;22.40;;;7.35;;
33150;SDS011;19508;42.578;23.416;2022-09-09T16:23:49;14.98;;;7.03;;
33150;SDS011;19508;42.578;23.416;2022-09-09T16:26:17;20.02;;;6.93;;
33150;SDS011;19508;42.578;23.416;2022-09-09T16:28:43;24.92;;;6.75;;
33150;SDS011;19508;42.578;23.416;2022-09-09T16:31:10;21.20;;;7.53;;
33150;SDS011;19508;42.578;23.416;2022-09-09T16:33:39;22.90;;;7.35;;
33150;SDS011;19508;42.578;23.416;2022-09-09T16:36:08;18.27;;;8.55;;
33150;SDS011;19508;42.578;23.416;2022-09-09T16:38:36;16.33;;;8.45;;
33150;SDS011;19508;42.578;23.416;2022-09-09T16:41:03;19.17;;;6.90;;
33150;SDS011;19508;42.578;23.416;2022-09-09T16:43:31;15.07;;;6.75;;
33150;SDS011;19508;42.578;23.416;2022-09-09T16:45:57;14.10;;;6.82;;
33150;SDS011;19508;42.578;23.416;2022-09-09T16:48:25;21.38;;;7.18;;
33150;SDS011;19508;42.578;23.416;2022-09-09T16:50:51;20.88;;;7.07;;
33150;SDS011;19508;42.578;23.416;2022-09-09T16:53:17;22.02;;;9.43;;
33150;SDS011;19508;42.578;23.416;2022-09-09T16:55:43;21.52;;;9.35;;
33150;SDS011;19508;42.578;23.416;2022-09-09T16:58:12;28.10;;;9.70;;
33150;SDS011;19508;42.578;23.416;2022-09-09T17:00:37;37.35;;;9.10;;
33150;SDS011;19508;42.578;23.416;2022-09-09T17:03:03;19.65;;;8.93;;